Temperatuur

Neerslag

Windstoten

Onweer

Weerstation

Weerstation

Ons weerstation streamt live data naar onze server. 

Vliegweer

[Source: ADDS]
METAR
EBBR 200620Z VRB01KT CAVOK 17/12 Q1015 NOSIG =
TAF
EBBR 200500Z 2006/2112 35003KT CAVOK PROB30 TEMPO 2013/2022 VRB15G25KT 3500 SHRA TSRA PROB30 TEMPO 2022/2112 4500 SHRA =

StormCell is een non profit organisatie zonder oogmerk tot sensatie